Time,TemperatureF,DewpointF,PressureIn,WindDirection,WindDirectionDegrees,WindSpeedMPH,WindSpeedGustMPH,Humidity,HourlyPrecipIn,Conditions,Clouds,dailyrainin,SoftwareType,DateUTC
2013-08-02 00:22:00,59.0,-99.9,-100.00,ENE,65,8.0,10.0,-999,-99.99,,,-99.99,,2013-08-02 06:22:00,
2013-08-02 00:33:00,59.0,-99.9,-100.00,ENE,65,8.0,10.0,-999,-99.99,,,-99.99,,2013-08-02 06:33:00,
2013-08-02 02:22:00,55.0,-99.9,-100.00,East,99,6.0,6.0,-999,-99.99,,,-99.99,,2013-08-02 08:22:00,
2013-08-02 02:33:00,55.0,-99.9,-100.00,East,99,6.0,6.0,-999,-99.99,,,-99.99,,2013-08-02 08:33:00,
2013-08-02 03:23:00,55.0,-99.9,-100.00,North,8,4.0,5.0,-999,-99.99,,,-99.99,,2013-08-02 09:23:00,
2013-08-02 03:33:00,55.0,-99.9,-100.00,North,8,4.0,5.0,-999,-99.99,,,-99.99,,2013-08-02 09:33:00,
2013-08-02 04:30:00,57.0,-99.9,-100.00,East,99,6.0,8.0,-999,-99.99,,,-99.99,,2013-08-02 10:30:00,
2013-08-02 05:23:00,57.0,-99.9,-100.00,East,99,6.0,8.0,-999,-99.99,,,-99.99,,2013-08-02 11:23:00,
2013-08-02 05:30:00,57.0,-99.9,-100.00,NE,36,2.0,5.0,-999,-99.99,,,-99.99,,2013-08-02 11:30:00,
2013-08-02 06:22:00,57.0,-99.9,-100.00,NE,36,2.0,5.0,-999,-99.99,,,-99.99,,2013-08-02 12:22:00,
2013-08-02 06:30:00,57.0,-99.9,-100.00,East,82,7.0,10.0,-999,-99.99,,,-99.99,,2013-08-02 12:30:00,
2013-08-02 07:23:00,57.0,-99.9,-100.00,East,82,7.0,10.0,-999,-99.99,,,-99.99,,2013-08-02 13:23:00,
2013-08-02 07:30:00,61.0,-99.9,-100.00,NNE,17,9.0,9.0,-999,-99.99,,,-99.99,,2013-08-02 13:30:00,
2013-08-02 08:23:00,61.0,-99.9,-100.00,NNE,17,9.0,9.0,-999,-99.99,,,-99.99,,2013-08-02 14:23:00,
2013-08-02 08:30:00,64.0,-99.9,-100.00,East,99,8.0,14.0,-999,-99.99,,,-99.99,,2013-08-02 14:30:00,
2013-08-02 09:30:00,68.0,-99.9,-100.00,East,98,12.0,16.0,-999,-99.99,,,-99.99,,2013-08-02 15:30:00,
2013-08-02 10:22:00,68.0,-99.9,-100.00,East,98,12.0,16.0,-999,-99.99,,,-99.99,,2013-08-02 16:22:00,
2013-08-02 10:30:00,68.0,-99.9,-100.00,East,84,11.0,15.0,-999,-99.99,,,-99.99,,2013-08-02 16:30:00,
2013-08-02 11:22:00,68.0,-99.9,-100.00,East,84,11.0,15.0,-999,-99.99,,,-99.99,,2013-08-02 17:22:00,
2013-08-02 11:30:00,70.0,-99.9,-100.00,East,91,11.0,14.0,-999,-99.99,,,-99.99,,2013-08-02 17:30:00,
2013-08-02 12:22:00,70.0,-99.9,-100.00,East,91,11.0,14.0,-999,-99.99,,,-99.99,,2013-08-02 18:22:00,
2013-08-02 12:30:00,72.0,-99.9,-100.00,ENE,77,11.0,14.0,-999,-99.99,,,-99.99,,2013-08-02 18:30:00,
2013-08-02 13:22:00,72.0,-99.9,-100.00,ENE,77,11.0,14.0,-999,-99.99,,,-99.99,,2013-08-02 19:22:00,
2013-08-02 13:30:00,73.0,-99.9,-100.00,ENE,59,8.0,13.0,-999,-99.99,,,-99.99,,2013-08-02 19:30:00,
2013-08-02 14:23:00,73.0,-99.9,-100.00,ENE,59,8.0,13.0,-999,-99.99,,,-99.99,,2013-08-02 20:23:00,
2013-08-02 14:30:00,75.0,-99.9,-100.00,NE,56,8.0,13.0,-999,-99.99,,,-99.99,,2013-08-02 20:30:00,
2013-08-02 15:12:00,75.0,-99.9,-100.00,NE,56,8.0,13.0,-999,-99.99,,,-99.99,,2013-08-02 21:12:00,
2013-08-02 15:22:00,75.0,-99.9,-100.00,NE,56,8.0,13.0,-999,-99.99,,,-99.99,,2013-08-02 21:22:00,
2013-08-02 15:30:00,73.0,-99.9,-100.00,ENE,75,7.0,12.0,-999,-99.99,,,-99.99,,2013-08-02 21:30:00,
2013-08-02 16:12:00,73.0,-99.9,-100.00,ENE,75,7.0,12.0,-999,-99.99,,,-99.99,,2013-08-02 22:12:00,
2013-08-02 16:22:00,73.0,-99.9,-100.00,ENE,75,7.0,12.0,-999,-99.99,,,-99.99,,2013-08-02 22:22:00,
2013-08-02 16:30:00,77.0,-99.9,-100.00,ENE,65,7.0,12.0,-999,-99.99,,,-99.99,,2013-08-02 22:30:00,
2013-08-02 17:12:00,77.0,-99.9,-100.00,ENE,65,7.0,12.0,-999,-99.99,,,-99.99,,2013-08-02 23:12:00,
2013-08-02 17:22:00,77.0,-99.9,-100.00,ENE,65,7.0,12.0,-999,-99.99,,,-99.99,,2013-08-02 23:22:00,
2013-08-02 18:02:00,77.0,-99.9,-100.00,East,79,8.0,9.0,-999,-99.99,,,-99.99,,2013-08-03 00:02:00,
2013-08-02 18:12:00,77.0,-99.9,-100.00,East,79,8.0,9.0,-999,-99.99,,,-99.99,,2013-08-03 00:12:00,
2013-08-02 18:22:00,77.0,-99.9,-100.00,East,79,8.0,9.0,-999,-99.99,,,-99.99,,2013-08-03 00:22:00,
2013-08-02 19:12:00,77.0,-99.9,-100.00,North,1,6.0,7.0,-999,-99.99,,,-99.99,,2013-08-03 01:12:00,
2013-08-02 19:22:00,77.0,-99.9,-100.00,North,1,6.0,7.0,-999,-99.99,,,-99.99,,2013-08-03 01:22:00,
2013-08-02 20:12:00,75.0,-99.9,-100.00,ENE,71,3.0,5.0,-999,-99.99,,,-99.99,,2013-08-03 02:12:00,
2013-08-02 20:22:00,75.0,-99.9,-100.00,ENE,71,3.0,5.0,-999,-99.99,,,-99.99,,2013-08-03 02:22:00,
2013-08-02 21:12:00,66.0,-99.9,-100.00,East,97,8.0,9.0,-999,-99.99,,,-99.99,,2013-08-03 03:12:00,
2013-08-02 21:22:00,66.0,-99.9,-100.00,East,97,8.0,9.0,-999,-99.99,,,-99.99,,2013-08-03 03:22:00,
2013-08-02 22:02:00,63.0,-99.9,-100.00,NNE,29,6.0,8.0,-999,-99.99,,,-99.99,,2013-08-03 04:02:00,
2013-08-02 22:12:00,63.0,-99.9,-100.00,NNE,29,6.0,8.0,-999,-99.99,,,-99.99,,2013-08-03 04:12:00,
2013-08-02 22:22:00,63.0,-99.9,-100.00,NNE,29,6.0,8.0,-999,-99.99,,,-99.99,,2013-08-03 04:22:00,
2013-08-02 23:22:00,61.0,-99.9,-100.00,NE,38,6.0,10.0,-999,-99.99,,,-99.99,,2013-08-03 05:22:00,